createdAt,value
2023-05-21T00:02:30.395Z,102469.63
2023-05-21T00:04:58.788Z,102466.14
2023-05-21T00:07:27.297Z,102466.34
2023-05-21T00:09:55.282Z,102467.59
2023-05-21T00:12:23.408Z,102466.55
2023-05-21T00:14:51.790Z,102467.79
2023-05-21T00:17:19.901Z,102468.52
2023-05-21T00:19:48.245Z,102467.66
2023-05-21T00:22:17.022Z,102468.55
2023-05-21T00:24:46.121Z,102470.32
2023-05-21T00:27:14.492Z,102472.10
2023-05-21T00:29:44.128Z,102472.98
2023-05-21T00:32:12.710Z,102471.05
2023-05-21T00:34:41.480Z,102474.05
2023-05-21T00:37:10.304Z,102473.17
2023-05-21T00:39:38.377Z,102471.08
2023-05-21T00:42:07.015Z,102471.95
2023-05-21T00:44:35.756Z,102468.27
2023-05-21T00:47:04.992Z,102466.20
2023-05-21T00:49:33.169Z,102466.02
2023-05-21T00:52:01.928Z,102467.45
2023-05-21T00:54:30.812Z,102467.98
2023-05-21T00:56:59.687Z,102467.64
2023-05-21T00:59:27.900Z,102465.72
2023-05-21T01:01:57.213Z,102466.98
2023-05-21T01:04:25.585Z,102468.58
2023-05-21T01:06:53.749Z,102465.42
2023-05-21T01:09:22.592Z,102469.30
2023-05-21T01:11:52.049Z,102467.87
2023-05-21T01:14:21.287Z,102469.45
2023-05-21T01:16:50.688Z,102468.05
2023-05-21T01:19:22.151Z,102470.87
2023-05-21T01:21:53.310Z,102472.63
2023-05-21T01:24:21.620Z,102475.45
2023-05-21T01:26:49.886Z,102472.80
2023-05-21T01:29:18.519Z,102475.10
2023-05-21T01:31:59.602Z,102473.16
2023-05-21T01:34:40.721Z,102472.65
2023-05-21T01:37:43.714Z,102470.20
2023-05-21T01:40:16.600Z,102464.05
2023-05-21T01:42:46.610Z,102463.70
2023-05-21T01:45:16.937Z,102464.04
2023-05-21T01:47:48.611Z,102464.90
2023-05-21T01:50:18.737Z,102459.95
2023-05-21T01:52:55.496Z,102461.72
2023-05-21T01:55:25.084Z,102469.10
2023-05-21T01:57:55.005Z,102463.45
2023-05-21T02:00:24.915Z,102462.91
2023-05-21T02:02:54.157Z,102464.32
2023-05-21T02:05:22.295Z,102461.51
2023-05-21T02:07:52.653Z,102461.52
2023-05-21T02:10:20.883Z,102462.25
2023-05-21T02:12:48.953Z,102463.84
2023-05-21T02:15:20.420Z,102463.29
2023-05-21T02:17:51.524Z,102465.05
2023-05-21T02:20:20.847Z,102465.94
2023-05-21T02:22:49.646Z,102468.23
2023-05-21T02:25:20.071Z,102465.59
2023-05-21T02:27:53.867Z,102463.66
2023-05-21T02:30:22.526Z,102462.42
2023-05-21T02:32:51.190Z,102463.31
2023-05-21T02:35:19.716Z,102460.13
2023-05-21T02:37:48.115Z,102459.42
2023-05-21T02:40:16.790Z,102456.43
2023-05-21T02:42:44.847Z,102457.33
2023-05-21T02:45:14.565Z,102454.67
2023-05-21T02:47:44.103Z,102452.20
2023-05-21T02:50:13.977Z,102453.80
2023-05-21T02:52:49.007Z,102453.60
2023-05-21T02:55:17.181Z,102452.73
2023-05-21T02:57:45.179Z,102454.84
2023-05-21T03:00:14.153Z,102454.15
2023-05-21T03:02:43.427Z,102459.42
2023-05-21T03:05:11.733Z,102458.55
2023-05-21T03:07:39.890Z,102460.83
2023-05-21T03:10:08.489Z,102461.02
2023-05-21T03:12:36.743Z,102462.77
2023-05-21T03:15:05.262Z,102452.37
2023-05-21T03:17:34.284Z,102453.23
2023-05-21T03:20:05.435Z,102452.35
2023-05-21T03:22:33.960Z,102451.45
2023-05-21T03:25:02.159Z,102456.38
2023-05-21T03:27:30.798Z,102454.61
2023-05-21T03:29:59.582Z,102453.55
2023-05-21T03:32:28.998Z,102449.49
2023-05-21T03:34:57.369Z,102448.59
2023-05-21T03:37:25.757Z,102449.62
2023-05-21T03:39:53.813Z,102450.81
2023-05-21T03:42:21.885Z,102445.67
2023-05-21T03:44:53.457Z,102447.95
2023-05-21T03:47:44.683Z,102443.35
2023-05-21T03:50:12.968Z,102442.56
2023-05-21T03:52:41.520Z,102444.78
2023-05-21T03:55:09.994Z,102446.48
2023-05-21T03:57:39.182Z,102445.15
2023-05-21T04:00:09.128Z,102442.52
2023-05-21T04:02:44.023Z,102436.60
2023-05-21T04:05:13.704Z,102441.20
2023-05-21T04:07:43.351Z,102439.45
2023-05-21T04:10:11.357Z,102435.40
2023-05-21T04:12:39.427Z,102432.25
2023-05-21T04:15:08.358Z,102433.38
2023-05-21T04:17:36.516Z,102426.71
2023-05-21T04:20:05.337Z,102429.73
2023-05-21T04:22:34.018Z,102427.17
2023-05-21T04:25:02.392Z,102425.65
2023-05-21T04:27:35.742Z,102422.29
2023-05-21T04:30:05.239Z,102420.40
2023-05-21T04:32:35.132Z,102421.72
2023-05-21T04:35:04.304Z,102418.33
2023-05-21T04:37:35.359Z,102419.54
2023-05-21T04:40:04.255Z,102418.02
2023-05-21T04:42:33.430Z,102421.94
2023-05-21T04:45:02.369Z,102417.51
2023-05-21T04:47:35.724Z,102413.68
2023-05-21T04:50:05.693Z,102407.46
2023-05-21T04:52:35.249Z,102405.63
2023-05-21T04:55:04.161Z,102402.42
2023-05-21T04:57:32.296Z,102402.42
2023-05-21T05:00:01.191Z,102396.85
2023-05-21T05:02:30.330Z,102395.83
2023-05-21T05:05:00.095Z,102393.81
2023-05-21T05:07:28.166Z,102392.08
2023-05-21T05:09:56.337Z,102397.09
2023-05-21T05:12:24.560Z,102398.61
2023-05-21T05:14:52.692Z,102400.87
2023-05-21T05:17:20.762Z,102401.91
2023-05-21T05:19:49.031Z,102400.34
2023-05-21T05:22:17.410Z,102398.92
2023-05-21T05:24:45.731Z,102398.34
2023-05-21T05:27:13.802Z,102399.15
2023-05-21T05:29:42.029Z,102397.96
2023-05-21T05:32:10.414Z,102397.04
2023-05-21T05:34:38.992Z,102399.13
2023-05-21T05:37:10.573Z,102397.71
2023-05-21T05:39:38.761Z,102396.63
2023-05-21T05:42:06.983Z,102396.41
2023-05-21T05:44:35.158Z,102393.09
2023-05-21T05:47:03.437Z,102391.17
2023-05-21T05:49:31.603Z,102385.46
2023-05-21T05:52:01.271Z,102387.83
2023-05-21T05:54:29.509Z,102389.07
2023-05-21T05:56:57.714Z,102389.61
2023-05-21T05:59:26.661Z,102387.34
2023-05-21T06:01:58.306Z,102383.82
2023-05-21T06:04:30.255Z,102379.63
2023-05-21T06:07:00.107Z,102389.36
2023-05-21T06:09:28.260Z,102384.58
2023-05-21T06:11:56.440Z,102385.97
2023-05-21T06:14:24.487Z,102383.59
2023-05-21T06:16:52.683Z,102380.05
2023-05-21T06:19:21.272Z,102385.19
2023-05-21T06:21:49.622Z,102389.17
2023-05-21T06:24:18.922Z,102383.96
2023-05-21T06:26:46.995Z,102386.15
2023-05-21T06:29:17.321Z,102387.04
2023-05-21T06:31:47.871Z,102387.77
2023-05-21T06:34:16.022Z,102384.52
2023-05-21T06:36:44.192Z,102387.14
2023-05-21T06:39:12.979Z,102383.21
2023-05-21T06:41:41.484Z,102384.36
2023-05-21T06:44:25.399Z,102383.98
2023-05-21T06:47:19.942Z,102381.23
2023-05-21T06:49:48.006Z,102381.15
2023-05-21T06:52:16.237Z,102381.41
2023-05-21T06:54:44.617Z,102379.73
2023-05-21T06:57:15.229Z,102380.52
2023-05-21T06:59:44.184Z,102381.25
2023-05-21T07:02:12.442Z,102384.45
2023-05-21T07:04:41.150Z,102386.05
2023-05-21T07:07:09.717Z,102385.15
2023-05-21T07:09:37.851Z,102385.68
2023-05-21T07:12:06.894Z,102382.13
2023-05-21T07:14:35.020Z,102386.21
2023-05-21T07:17:03.310Z,102387.91
2023-05-21T07:19:32.743Z,102382.76
2023-05-21T07:22:01.068Z,102381.90
2023-05-21T07:24:29.448Z,102380.90
2023-05-21T07:26:57.537Z,102380.21
2023-05-21T07:29:25.687Z,102379.17
2023-05-21T07:31:54.894Z,102377.11
2023-05-21T07:34:23.063Z,102378.46
2023-05-21T07:36:51.461Z,102378.88
2023-05-21T07:39:19.842Z,102376.40
2023-05-21T07:41:48.247Z,102375.63
2023-05-21T07:44:16.670Z,102375.80
2023-05-21T07:46:46.628Z,102373.27
2023-05-21T07:49:17.225Z,102376.15
2023-05-21T07:51:46.624Z,102371.17
2023-05-21T07:54:15.018Z,102373.17
2023-05-21T07:56:43.582Z,102371.47
2023-05-21T07:59:17.489Z,102375.67
2023-05-21T08:01:45.764Z,102381.92
2023-05-21T08:04:14.285Z,102382.83
2023-05-21T08:06:42.826Z,102382.84
2023-05-21T08:09:10.997Z,102384.75
2023-05-21T08:11:39.171Z,102381.83
2023-05-21T08:14:08.572Z,102384.88
2023-05-21T08:16:37.095Z,102385.58
2023-05-21T08:19:05.345Z,102373.87
2023-05-21T08:21:34.704Z,102379.98
2023-05-21T08:24:03.273Z,102379.34
2023-05-21T08:26:31.490Z,102376.06
2023-05-21T08:28:59.759Z,102372.23
2023-05-21T08:31:28.417Z,102374.41
2023-05-21T08:33:56.848Z,102369.77
2023-05-21T08:36:34.517Z,102373.67
2023-05-21T08:39:07.323Z,102365.17
2023-05-21T08:41:40.217Z,102366.95
2023-05-21T08:44:12.610Z,102367.16
2023-05-21T08:46:42.846Z,102366.73
2023-05-21T08:49:14.225Z,102363.54
2023-05-21T08:51:42.917Z,102363.39
2023-05-21T08:54:14.123Z,102366.95
2023-05-21T08:56:49.512Z,102361.25
2023-05-21T08:59:19.163Z,102360.66
2023-05-21T09:01:50.252Z,102362.52
2023-05-21T09:04:28.959Z,102359.95
2023-05-21T09:06:58.298Z,102356.20
2023-05-21T09:09:52.768Z,102353.23
2023-05-21T09:12:21.231Z,102354.59
2023-05-21T09:14:49.813Z,102356.55
2023-05-21T09:17:21.219Z,102352.23
2023-05-21T09:20:12.588Z,102354.63
2023-05-21T09:22:47.794Z,102354.82
2023-05-21T09:25:24.489Z,102356.12
2023-05-21T09:27:52.962Z,102352.30
2023-05-21T09:30:24.792Z,102350.13
2023-05-21T09:32:59.728Z,102353.05
2023-05-21T09:35:28.147Z,102350.56
2023-05-21T09:37:57.740Z,102349.12
2023-05-21T09:40:26.423Z,102346.42
2023-05-21T09:42:55.344Z,102349.74
2023-05-21T09:45:27.989Z,102350.67
2023-05-21T09:47:57.426Z,102346.29
2023-05-21T09:50:28.195Z,102346.30
2023-05-21T09:52:56.723Z,102336.92
2023-05-21T09:55:28.969Z,102347.34
2023-05-21T09:57:58.522Z,102338.37
2023-05-21T10:00:28.818Z,102343.27
2023-05-21T10:03:01.211Z,102339.62
2023-05-21T10:05:30.947Z,102344.45
2023-05-21T10:08:04.216Z,102334.27
2023-05-21T10:10:32.992Z,102330.40
2023-05-21T10:13:08.919Z,102329.77
2023-05-21T10:15:44.600Z,102329.22
2023-05-21T10:18:14.160Z,102329.85
2023-05-21T10:20:43.134Z,102329.52
2023-05-21T10:23:13.096Z,102330.31
2023-05-21T10:25:41.662Z,102326.17
2023-05-21T10:28:10.348Z,102333.10
2023-05-21T10:30:39.224Z,102325.25
2023-05-21T10:33:08.213Z,102326.27
2023-05-21T10:35:38.910Z,102330.13
2023-05-21T10:38:09.284Z,102337.23
2023-05-21T10:40:37.895Z,102327.44
2023-05-21T10:43:31.570Z,102323.78
2023-05-21T10:46:18.314Z,102328.19
2023-05-21T10:48:52.250Z,102327.17
2023-05-21T10:51:25.859Z,102322.18
2023-05-21T10:54:08.967Z,102322.48
2023-05-21T10:56:49.337Z,102315.45
2023-05-21T10:59:46.132Z,102311.85
2023-05-21T11:02:16.301Z,102310.64
2023-05-21T11:04:49.585Z,102302.46
2023-05-21T11:07:24.733Z,102300.81
2023-05-21T11:09:53.163Z,102293.00
2023-05-21T11:12:23.396Z,102300.64
2023-05-21T11:14:58.319Z,102302.55
2023-05-21T11:17:43.346Z,102302.92
2023-05-21T11:20:16.927Z,102296.23
2023-05-21T11:22:46.971Z,102293.71
2023-05-21T11:25:16.145Z,102292.00
2023-05-21T11:27:44.214Z,102295.64
2023-05-21T11:30:17.633Z,102289.17
2023-05-21T11:33:08.769Z,102282.00
2023-05-21T11:35:39.452Z,102281.61
2023-05-21T11:38:09.674Z,102280.90
2023-05-21T11:40:38.421Z,102279.64
2023-05-21T11:43:06.629Z,102285.29
2023-05-21T11:45:35.116Z,102281.08
2023-05-21T11:48:03.957Z,102276.17
2023-05-21T11:50:34.167Z,102270.29
2023-05-21T11:53:02.482Z,102267.60
2023-05-21T11:55:32.257Z,102271.48
2023-05-21T11:58:01.138Z,102270.62
2023-05-21T12:00:29.271Z,102270.85
2023-05-21T12:02:57.609Z,102266.16
2023-05-21T12:05:27.321Z,102269.29
2023-05-21T12:07:56.842Z,102271.98
2023-05-21T12:10:25.024Z,102267.84
2023-05-21T12:12:56.882Z,102268.31
2023-05-21T12:15:27.082Z,102273.67
2023-05-21T12:17:55.612Z,102265.05
2023-05-21T12:20:26.400Z,102272.73
2023-05-21T12:22:54.816Z,102271.05
2023-05-21T12:25:23.278Z,102267.73
2023-05-21T12:27:58.221Z,102271.16
2023-05-21T12:30:27.461Z,102267.28
2023-05-21T12:32:58.924Z,102269.54
2023-05-21T12:35:27.128Z,102264.84
2023-05-21T12:37:55.556Z,102258.69
2023-05-21T12:40:37.512Z,102253.92
2023-05-21T12:43:06.297Z,102254.11
2023-05-21T12:45:36.787Z,102254.33
2023-05-21T12:48:05.242Z,102254.13
2023-05-21T12:50:34.203Z,102252.80
2023-05-21T12:53:02.452Z,102248.65
2023-05-21T12:55:31.713Z,102249.41
2023-05-21T12:58:09.059Z,102239.73
2023-05-21T13:00:38.106Z,102240.55
2023-05-21T13:03:07.378Z,102237.66
2023-05-21T13:05:36.020Z,102241.17
2023-05-21T13:08:04.310Z,102240.64
2023-05-21T13:10:32.476Z,102233.74
2023-05-21T13:13:00.755Z,102236.03
2023-05-21T13:15:29.035Z,102232.50
2023-05-21T13:17:58.072Z,102229.41
2023-05-21T13:20:34.510Z,102232.00
2023-05-21T13:23:06.206Z,102226.86
2023-05-21T13:25:35.445Z,102229.05
2023-05-21T13:28:10.299Z,102223.02
2023-05-21T13:30:38.835Z,102219.89
2023-05-21T13:33:07.910Z,102213.95
2023-05-21T13:35:36.631Z,102219.23
2023-05-21T13:38:04.817Z,102210.11
2023-05-21T13:40:33.195Z,102214.46
2023-05-21T13:43:01.355Z,102216.00
2023-05-21T13:45:29.686Z,102209.42
2023-05-21T13:47:58.478Z,102209.52
2023-05-21T13:50:26.914Z,102207.05
2023-05-21T13:52:55.377Z,102205.86
2023-05-21T13:55:23.663Z,102206.94
2023-05-21T13:57:51.954Z,102204.63
2023-05-21T14:00:20.114Z,102205.70
2023-05-21T14:02:48.679Z,102203.71
2023-05-21T14:05:16.962Z,102210.77
2023-05-21T14:07:47.688Z,102202.84
2023-05-21T14:10:16.069Z,102198.77
2023-05-21T14:12:46.287Z,102188.02
2023-05-21T14:15:14.463Z,102184.64
2023-05-21T14:17:42.783Z,102182.56
2023-05-21T14:20:12.080Z,102185.14
2023-05-21T14:22:40.434Z,102181.12
2023-05-21T14:25:09.254Z,102178.49
2023-05-21T14:27:38.439Z,102182.14
2023-05-21T14:30:08.053Z,102179.30
2023-05-21T14:32:36.292Z,102182.02
2023-05-21T14:35:05.244Z,102179.01
2023-05-21T14:37:33.456Z,102177.92
2023-05-21T14:40:02.134Z,102177.39
2023-05-21T14:42:30.713Z,102176.32
2023-05-21T14:44:59.141Z,102176.02
2023-05-21T14:47:27.403Z,102179.31
2023-05-21T14:49:55.660Z,102171.70
2023-05-21T14:52:23.708Z,102172.10
2023-05-21T14:54:51.887Z,102171.41
2023-05-21T14:57:20.917Z,102169.21
2023-05-21T14:59:49.145Z,102167.67
2023-05-21T15:02:17.346Z,102167.44
2023-05-21T15:04:45.700Z,102164.42
2023-05-21T15:07:13.872Z,102161.23
2023-05-21T15:09:42.037Z,102163.39
2023-05-21T15:12:10.157Z,102159.80
2023-05-21T15:14:38.489Z,102157.26
2023-05-21T15:17:06.560Z,102157.81
2023-05-21T15:19:35.108Z,102154.06
2023-05-21T15:22:03.462Z,102156.42
2023-05-21T15:24:31.587Z,102157.71
2023-05-21T15:26:59.659Z,102158.64
2023-05-21T15:29:28.141Z,102156.93
2023-05-21T15:31:56.314Z,102159.80
2023-05-21T15:34:24.526Z,102154.20
2023-05-21T15:36:52.662Z,102163.57
2023-05-21T15:39:21.048Z,102164.39
2023-05-21T15:41:49.118Z,102162.62
2023-05-21T15:44:17.325Z,102160.94
2023-05-21T15:46:45.586Z,102156.46
2023-05-21T15:49:13.774Z,102155.95
2023-05-21T15:51:42.115Z,102152.41
2023-05-21T15:54:11.109Z,102155.96
2023-05-21T15:56:40.361Z,102157.00
2023-05-21T15:59:08.503Z,102152.67
2023-05-21T16:01:36.800Z,102149.77
2023-05-21T16:04:05.278Z,102152.94
2023-05-21T16:06:33.648Z,102152.55
2023-05-21T16:09:01.879Z,102152.17
2023-05-21T16:11:30.470Z,102153.02
2023-05-21T16:13:58.794Z,102153.49
2023-05-21T16:16:27.036Z,102152.02
2023-05-21T16:18:55.789Z,102148.96
2023-05-21T16:21:24.375Z,102146.41
2023-05-21T16:23:52.462Z,102145.16
2023-05-21T16:26:21.748Z,102143.06
2023-05-21T16:28:50.025Z,102139.38
2023-05-21T16:31:18.200Z,102139.59
2023-05-21T16:33:46.268Z,102139.77
2023-05-21T16:36:15.774Z,102139.80
2023-05-21T16:38:45.040Z,102141.78
2023-05-21T16:41:13.243Z,102139.79
2023-05-21T16:43:41.464Z,102135.33
2023-05-21T16:46:10.340Z,102139.91
2023-05-21T16:48:40.023Z,102139.67
2023-05-21T16:51:08.302Z,102134.11
2023-05-21T16:53:36.476Z,102137.08
2023-05-21T16:56:04.589Z,102141.42
2023-05-21T16:58:33.516Z,102140.79
2023-05-21T17:01:01.701Z,102140.38
2023-05-21T17:03:32.120Z,102141.89
2023-05-21T17:06:00.498Z,102141.13
2023-05-21T17:08:28.511Z,102141.95
2023-05-21T17:10:56.636Z,102144.86
2023-05-21T17:13:24.814Z,102142.40
2023-05-21T17:15:53.051Z,102143.56
2023-05-21T17:18:21.172Z,102143.21
2023-05-21T17:20:49.299Z,102142.39
2023-05-21T17:23:17.637Z,102144.08
2023-05-21T17:25:45.931Z,102145.23
2023-05-21T17:28:13.994Z,102145.28
2023-05-21T17:30:42.538Z,102143.19
2023-05-21T17:33:10.965Z,102145.55
2023-05-21T17:35:39.548Z,102145.74
2023-05-21T17:38:07.875Z,102143.48
2023-05-21T17:40:36.560Z,102145.30
2023-05-21T17:43:05.347Z,102143.44
2023-05-21T17:45:33.619Z,102137.71
2023-05-21T17:48:01.893Z,102140.41
2023-05-21T17:50:30.350Z,102136.36
2023-05-21T17:52:58.549Z,102134.09
2023-05-21T17:55:26.617Z,102135.36
2023-05-21T17:57:54.698Z,102132.96
2023-05-21T18:00:22.878Z,102129.66
2023-05-21T18:02:50.952Z,102127.23
2023-05-21T18:05:19.206Z,102126.24
2023-05-21T18:07:47.412Z,102128.96
2023-05-21T18:10:15.972Z,102127.29
2023-05-21T18:12:46.453Z,102131.13
2023-05-21T18:15:15.649Z,102130.59
2023-05-21T18:17:44.384Z,102130.61
2023-05-21T18:20:13.440Z,102136.54
2023-05-21T18:22:41.633Z,102134.86
2023-05-21T18:25:10.217Z,102134.20
2023-05-21T18:27:38.245Z,102140.46
2023-05-21T18:30:08.298Z,102139.77
2023-05-21T18:32:39.065Z,102141.40
2023-05-21T18:35:11.462Z,102140.73
2023-05-21T18:37:42.347Z,102141.16
2023-05-21T18:40:12.189Z,102140.14
2023-05-21T18:42:40.440Z,102141.59
2023-05-21T18:45:10.456Z,102144.09
2023-05-21T18:47:41.000Z,102148.60
2023-05-21T18:50:14.346Z,102148.62
2023-05-21T18:52:42.656Z,102150.59
2023-05-21T18:55:10.820Z,102147.58
2023-05-21T18:57:39.712Z,102148.77
2023-05-21T19:00:11.513Z,102148.94
2023-05-21T19:02:40.469Z,102151.42
2023-05-21T19:05:09.695Z,102155.89
2023-05-21T19:07:37.830Z,102152.84
2023-05-21T19:10:06.856Z,102153.70
2023-05-21T19:12:36.554Z,102154.59
2023-05-21T19:15:06.031Z,102153.49
2023-05-21T19:17:36.491Z,102166.63
2023-05-21T19:20:06.878Z,102161.11
2023-05-21T19:22:37.316Z,102161.38
2023-05-21T19:25:06.483Z,102157.23
2023-05-21T19:27:34.678Z,102161.45
2023-05-21T19:30:02.985Z,102156.98
2023-05-21T19:32:31.645Z,102160.98
2023-05-21T19:35:00.344Z,102157.20
2023-05-21T19:37:28.706Z,102153.26
2023-05-21T19:39:57.001Z,102155.50
2023-05-21T19:42:25.386Z,102156.84
2023-05-21T19:44:53.407Z,102154.46
2023-05-21T19:47:21.620Z,102152.08
2023-05-21T19:49:49.771Z,102151.30
2023-05-21T19:52:18.148Z,102153.71
2023-05-21T19:54:46.321Z,102156.94
2023-05-21T19:57:14.675Z,102153.00
2023-05-21T19:59:42.788Z,102149.33
2023-05-21T20:02:13.398Z,102153.69
2023-05-21T20:04:41.573Z,102156.59
2023-05-21T20:07:09.953Z,102157.91
2023-05-21T20:09:38.331Z,102156.61
2023-05-21T20:12:06.956Z,102149.85
2023-05-21T20:14:35.405Z,102149.77
2023-05-21T20:17:06.073Z,102152.16
2023-05-21T20:19:35.113Z,102152.58
2023-05-21T20:22:03.285Z,102150.36
2023-05-21T20:24:31.671Z,102152.87
2023-05-21T20:27:01.884Z,102153.63
2023-05-21T20:29:30.258Z,102153.54
2023-05-21T20:31:58.439Z,102151.17
2023-05-21T20:34:27.731Z,102150.73
2023-05-21T20:36:59.227Z,102152.63
2023-05-21T20:39:31.281Z,102149.39
2023-05-21T20:42:01.185Z,102151.77
2023-05-21T20:44:29.407Z,102151.97
2023-05-21T20:46:57.504Z,102153.64
2023-05-21T20:49:26.231Z,102155.80
2023-05-21T20:51:54.771Z,102162.23
2023-05-21T20:54:22.842Z,102158.91
2023-05-21T20:56:50.950Z,102160.41
2023-05-21T20:59:19.191Z,102160.46
2023-05-21T21:01:47.404Z,102166.35
2023-05-21T21:04:16.314Z,102166.08
2023-05-21T21:06:46.787Z,102168.56
2023-05-21T21:09:14.891Z,102168.60
2023-05-21T21:11:43.442Z,102171.10
2023-05-21T21:14:11.633Z,102169.57
2023-05-21T21:16:39.870Z,102168.58
2023-05-21T21:19:08.099Z,102178.15
2023-05-21T21:21:36.838Z,102169.73
2023-05-21T21:24:05.539Z,102171.88
2023-05-21T21:26:33.536Z,102165.91
2023-05-21T21:29:01.574Z,102167.49
2023-05-21T21:31:30.051Z,102168.42
2023-05-21T21:33:58.364Z,102166.52
2023-05-21T21:36:28.999Z,102161.08
2023-05-21T21:38:57.479Z,102164.12
2023-05-21T21:41:26.116Z,102160.77
2023-05-21T21:43:54.290Z,102163.95
2023-05-21T21:46:22.578Z,102162.22
2023-05-21T21:48:50.842Z,102160.80
2023-05-21T21:51:20.677Z,102161.34
2023-05-21T21:53:49.845Z,102161.37
2023-05-21T21:56:18.024Z,102156.95
2023-05-21T21:58:46.604Z,102164.88
2023-05-21T22:01:14.808Z,102162.05
2023-05-21T22:03:43.055Z,102163.09
2023-05-21T22:06:11.123Z,102159.91
2023-05-21T22:08:39.291Z,102159.53
2023-05-21T22:11:07.462Z,102157.24
2023-05-21T22:13:35.489Z,102158.48
2023-05-21T22:16:05.546Z,102154.06
2023-05-21T22:18:41.067Z,102156.91
2023-05-21T22:21:10.857Z,102156.03
2023-05-21T22:23:39.389Z,102159.59
2023-05-21T22:26:07.820Z,102158.85
2023-05-21T22:28:36.260Z,102156.54
2023-05-21T22:31:05.315Z,102154.94
2023-05-21T22:33:33.723Z,102155.44
2023-05-21T22:36:02.416Z,102156.14
2023-05-21T22:38:30.735Z,102151.90
2023-05-21T22:40:58.854Z,102153.48
2023-05-21T22:43:27.251Z,102149.58
2023-05-21T22:45:55.715Z,102147.48
2023-05-21T22:48:23.885Z,102145.52
2023-05-21T22:50:53.673Z,102143.23
2023-05-21T22:53:22.103Z,102137.77
2023-05-21T22:55:50.368Z,102137.23
2023-05-21T22:58:18.969Z,102136.70
2023-05-21T23:00:47.411Z,102130.70
2023-05-21T23:03:16.456Z,102133.67
2023-05-21T23:05:45.261Z,102131.90
2023-05-21T23:08:13.910Z,102133.82
2023-05-21T23:10:42.075Z,102133.27
2023-05-21T23:13:10.223Z,102131.85
2023-05-21T23:15:39.206Z,102130.95
2023-05-21T23:18:08.797Z,102129.67
2023-05-21T23:20:39.754Z,102128.06
2023-05-21T23:23:08.129Z,102127.69
2023-05-21T23:25:36.411Z,102126.77
2023-05-21T23:28:04.990Z,102123.95
2023-05-21T23:30:33.063Z,102123.58
2023-05-21T23:33:01.345Z,102126.74
2023-05-21T23:35:29.434Z,102121.98
2023-05-21T23:37:57.578Z,102123.73
2023-05-21T23:40:25.810Z,102126.02
2023-05-21T23:42:54.031Z,102126.06
2023-05-21T23:45:22.304Z,102124.88
2023-05-21T23:47:50.820Z,102123.99
2023-05-21T23:50:19.079Z,102124.56
2023-05-21T23:52:47.460Z,102116.45
2023-05-21T23:55:16.165Z,102121.41
2023-05-21T23:57:44.240Z,102122.67
